Time;durP1;ratioP1;P1;durP2;ratioP2;P2;SDS_P1;SDS_P2;PMS_P1;PMS_P2;Temp;Humidity;BMP_temperature;BMP_pressure;BME280_temperature;BME280_humidity;BME280_pressure;Samples;Min_cycle;Max_cycle;Signal;HPM_P1;HPM_P2
2024/02/28 00:01:25;;;;;;;34.00;16.37;;;7.00;98.00;;;;;;5047763;28;20203;-60
2024/02/28 00:03:50;;;;;;;33.13;16.77;;;6.90;97.70;;;;;;5052431;28;20234;-59
2024/02/28 00:06:16;;;;;;;33.87;17.37;;;7.00;97.80;;;;;;5052359;28;20179;-59
2024/02/28 00:08:42;;;;;;;31.57;17.07;;;6.90;97.90;;;;;;5046810;28;20195;-59
2024/02/28 00:11:08;;;;;;;28.80;15.87;;;6.90;97.50;;;;;;5048263;28;20487;-59
2024/02/28 00:13:34;;;;;;;29.20;15.73;;;6.90;97.40;;;;;;5049726;28;20183;-59
2024/02/28 00:15:59;;;;;;;31.47;15.83;;;6.90;97.20;;;;;;5047105;28;20564;-59
2024/02/28 00:18:25;;;;;;;29.10;16.80;;;6.80;97.20;;;;;;5049985;28;20202;-59
2024/02/28 00:20:50;;;;;;;37.60;16.10;;;6.80;96.80;;;;;;5046889;28;20729;-59
2024/02/28 00:23:16;;;;;;;29.43;14.67;;;6.80;97.00;;;;;;5049318;28;20172;-58
2024/02/28 00:25:42;;;;;;;32.97;16.20;;;6.80;96.30;;;;;;5025163;28;20175;-59
2024/02/28 00:28:07;;;;;;;30.60;15.47;;;6.80;96.30;;;;;;5046471;28;20213;-59
2024/02/28 00:30:33;;;;;;;32.80;16.90;;;6.80;96.30;;;;;;5045843;28;20550;-59
2024/02/28 00:32:59;;;;;;;29.33;16.17;;;6.80;96.30;;;;;;5044274;28;20194;-59
2024/02/28 00:35:25;;;;;;;31.43;16.80;;;6.80;95.50;;;;;;5043368;28;20190;-60
2024/02/28 00:37:51;;;;;;;30.73;16.43;;;6.80;95.60;;;;;;5047591;28;20441;-59
2024/02/28 00:40:16;;;;;;;29.37;16.17;;;6.80;95.60;;;;;;5039868;28;20207;-60
2024/02/28 00:42:42;;;;;;;35.53;16.27;;;6.80;95.60;;;;;;5048804;28;20170;-60
2024/02/28 00:45:09;;;;;;;31.00;15.73;;;6.70;95.50;;;;;;5047949;28;20233;-60
2024/02/28 00:47:35;;;;;;;33.37;16.63;;;6.80;95.80;;;;;;5038887;28;20409;-59
2024/02/28 00:50:03;;;;;;;31.60;16.20;;;6.80;95.70;;;;;;5054388;28;21123;-59
2024/02/28 00:52:29;;;;;;;33.87;17.20;;;6.70;95.30;;;;;;5050282;28;20175;-60
2024/02/28 00:54:55;;;;;;;36.30;17.53;;;6.70;95.30;;;;;;5048209;28;20472;-59
2024/02/28 00:57:20;;;;;;;34.03;17.23;;;6.70;95.30;;;;;;5046493;28;20454;-59
2024/02/28 00:59:46;;;;;;;31.07;16.40;;;6.70;94.90;;;;;;5047649;28;20709;-59
2024/02/28 01:02:12;;;;;;;34.47;17.47;;;6.70;95.00;;;;;;5046676;28;20175;-59
2024/02/28 01:04:39;;;;;;;32.80;16.67;;;6.70;95.40;;;;;;5044410;28;20529;-60
2024/02/28 01:07:05;;;;;;;29.47;16.00;;;6.70;95.40;;;;;;5044715;28;20449;-59
2024/02/28 01:09:31;;;;;;;32.83;16.63;;;6.70;95.60;;;;;;5045688;28;21015;-60
2024/02/28 01:11:57;;;;;;;36.93;16.27;;;6.70;95.90;;;;;;5047013;28;20410;-60
2024/02/28 01:14:22;;;;;;;29.60;16.00;;;6.70;96.20;;;;;;5048796;28;20167;-60
2024/02/28 01:16:48;;;;;;;30.33;16.30;;;6.70;95.60;;;;;;5047212;28;20179;-60
2024/02/28 01:19:15;;;;;;;32.60;16.03;;;6.70;95.90;;;;;;5046499;28;20207;-62
2024/02/28 01:21:41;;;;;;;31.07;17.07;;;6.70;96.40;;;;;;5045113;28;20468;-60
2024/02/28 01:24:07;;;;;;;30.13;15.70;;;6.70;96.50;;;;;;5043516;28;20415;-60
2024/02/28 01:26:32;;;;;;;32.40;16.47;;;6.70;96.90;;;;;;5030075;28;20179;-61
2024/02/28 01:28:58;;;;;;;31.17;16.93;;;6.70;97.00;;;;;;5044368;28;20215;-60
2024/02/28 01:31:24;;;;;;;27.33;14.53;;;6.70;97.00;;;;;;5047425;28;20172;-59
2024/02/28 01:33:49;;;;;;;32.90;16.87;;;6.70;96.60;;;;;;5051535;28;20182;-60
2024/02/28 01:36:15;;;;;;;28.10;15.20;;;6.70;96.20;;;;;;5048185;28;20669;-60
2024/02/28 01:38:41;;;;;;;28.37;14.80;;;6.60;95.40;;;;;;5043820;28;20549;-60
2024/02/28 01:41:06;;;;;;;27.50;14.97;;;6.60;95.20;;;;;;5046188;28;20748;-60
2024/02/28 01:43:32;;;;;;;30.63;16.27;;;6.60;94.80;;;;;;5044998;28;20187;-60
2024/02/28 01:46:04;;;;;;;30.97;15.07;;;6.70;94.50;;;;;;5046585;28;20193;-61
2024/02/28 01:48:29;;;;;;;27.60;15.10;;;6.60;94.40;;;;;;5045774;28;20461;-61
2024/02/28 01:50:55;;;;;;;31.83;14.07;;;6.60;93.90;;;;;;5037768;28;20907;-60
2024/02/28 01:53:21;;;;;;;32.43;15.77;;;6.60;94.10;;;;;;5043827;28;20196;-60
2024/02/28 01:55:47;;;;;;;33.03;16.23;;;6.60;94.10;;;;;;5044549;28;20187;-60
2024/02/28 01:58:13;;;;;;;28.30;15.10;;;6.60;94.40;;;;;;5043292;28;20209;-60
2024/02/28 02:00:40;;;;;;;29.30;15.50;;;6.50;94.50;;;;;;5041707;28;20453;-59
2024/02/28 02:03:05;;;;;;;29.83;15.47;;;6.50;94.60;;;;;;5044803;28;20176;-59
2024/02/28 02:05:31;;;;;;;31.43;15.13;;;6.50;94.50;;;;;;5044619;28;21013;-60
2024/02/28 02:07:58;;;;;;;29.97;15.80;;;6.50;94.80;;;;;;5040936;28;20272;-59
2024/02/28 02:10:25;;;;;;;29.77;14.87;;;6.40;95.20;;;;;;5042790;28;20217;-60
2024/02/28 02:12:51;;;;;;;28.77;14.53;;;6.40;95.30;;;;;;5045547;28;20425;-60
2024/02/28 02:15:16;;;;;;;28.27;14.40;;;6.30;95.20;;;;;;5047496;28;20463;-60
2024/02/28 02:17:42;;;;;;;26.13;14.13;;;6.20;95.20;;;;;;5046099;28;20712;-60
2024/02/28 02:20:12;;;;;;;25.80;14.87;;;6.20;95.30;;;;;;5046415;28;20272;-60
2024/02/28 02:22:40;;;;;;;26.00;13.67;;;6.10;95.60;;;;;;5051059;28;20163;-58
2024/02/28 02:25:07;;;;;;;27.30;13.13;;;6.10;95.60;;;;;;5045038;28;20803;-60
2024/02/28 02:27:32;;;;;;;21.70;12.20;;;6.00;96.00;;;;;;5028713;28;20522;-59
2024/02/28 02:29:58;;;;;;;24.70;12.40;;;6.00;96.60;;;;;;5041683;28;20963;-60
2024/02/28 02:32:23;;;;;;;27.53;13.63;;;5.90;96.70;;;;;;5044069;28;20171;-60
2024/02/28 02:34:49;;;;;;;27.87;13.40;;;5.80;96.80;;;;;;5041841;28;20272;-60
2024/02/28 02:37:15;;;;;;;25.53;13.47;;;5.80;97.40;;;;;;5038336;28;20187;-59
2024/02/28 02:39:41;;;;;;;24.77;12.03;;;5.80;98.00;;;;;;5044624;28;20768;-60
2024/02/28 02:42:06;;;;;;;24.27;13.17;;;5.70;98.20;;;;;;5043680;28;20179;-60
2024/02/28 02:44:32;;;;;;;26.23;13.63;;;5.70;98.20;;;;;;5046971;28;20234;-59
2024/02/28 02:46:57;;;;;;;23.33;13.00;;;5.70;98.60;;;;;;5042857;28;20288;-60
2024/02/28 02:49:23;;;;;;;23.83;12.23;;;5.60;98.60;;;;;;5047481;28;20175;-60
2024/02/28 02:51:48;;;;;;;20.80;12.40;;;5.60;99.00;;;;;;5048607;28;20232;-59
2024/02/28 02:54:14;;;;;;;27.60;13.30;;;5.50;99.20;;;;;;5044197;28;20175;-60
2024/02/28 02:56:43;;;;;;;27.10;13.67;;;5.50;99.60;;;;;;5045173;28;20646;-60
2024/02/28 02:59:10;;;;;;;23.97;13.20;;;5.50;99.50;;;;;;5036559;28;20203;-58
2024/02/28 03:01:36;;;;;;;20.80;11.60;;;5.40;98.90;;;;;;5045586;28;20465;-58
2024/02/28 03:04:02;;;;;;;23.33;13.63;;;5.40;99.10;;;;;;5044064;28;20440;-58
2024/02/28 03:06:27;;;;;;;27.50;13.80;;;5.40;98.80;;;;;;5049407;28;20198;-59
2024/02/28 03:08:53;;;;;;;24.23;12.90;;;5.30;99.30;;;;;;5045064;28;20814;-59
2024/02/28 03:11:18;;;;;;;22.80;14.10;;;5.30;99.90;;;;;;5049441;28;20187;-59
2024/02/28 03:13:44;;;;;;;24.37;13.73;;;5.20;99.90;;;;;;5046074;28;20186;-59
2024/02/28 03:16:10;;;;;;;24.30;12.30;;;5.20;99.90;;;;;;5047494;28;20266;-61
2024/02/28 03:18:35;;;;;;;21.83;12.37;;;5.20;99.90;;;;;;5045484;28;20724;-58
2024/02/28 03:21:01;;;;;;;25.70;13.50;;;5.20;99.90;;;;;;5040053;28;20751;-58
2024/02/28 03:23:27;;;;;;;24.67;12.17;;;5.20;99.90;;;;;;5049353;28;20266;-59
2024/02/28 03:25:53;;;;;;;24.40;13.60;;;5.20;99.80;;;;;;5047027;28;20525;-59
2024/02/28 03:28:18;;;;;;;24.00;13.33;;;5.10;99.50;;;;;;5048939;28;20196;-58
2024/02/28 03:30:44;;;;;;;21.87;12.83;;;5.10;99.20;;;;;;5051917;28;20193;-59
2024/02/28 03:33:10;;;;;;;26.87;12.63;;;5.00;98.70;;;;;;5054289;28;20193;-59
2024/02/28 03:35:35;;;;;;;22.83;11.90;;;5.00;98.50;;;;;;5041699;28;20222;-59
2024/02/28 03:38:01;;;;;;;25.50;12.30;;;4.90;99.10;;;;;;5029629;28;20198;-58
2024/02/28 03:40:26;;;;;;;20.83;12.53;;;4.90;98.70;;;;;;5050999;28;20195;-59
2024/02/28 03:42:52;;;;;;;21.90;13.10;;;4.90;99.30;;;;;;5043530;28;20183;-58
2024/02/28 03:45:19;;;;;;;28.00;12.70;;;4.80;99.60;;;;;;5046885;28;20294;-58
2024/02/28 03:47:45;;;;;;;19.53;11.67;;;4.80;99.90;;;;;;5042949;28;20237;-58
2024/02/28 03:50:11;;;;;;;23.50;13.20;;;4.70;99.90;;;;;;5042618;28;20434;-59
2024/02/28 03:52:36;;;;;;;24.10;13.27;;;4.70;99.90;;;;;;5043221;28;20432;-59
2024/02/28 03:55:03;;;;;;;24.83;11.80;;;4.70;99.90;;;;;;5048179;28;20186;-59
2024/02/28 03:57:28;;;;;;;22.07;12.67;;;4.60;99.90;;;;;;5053426;28;20220;-59
2024/02/28 03:59:54;;;;;;;23.20;12.60;;;4.60;99.90;;;;;;5053429;28;20449;-58
2024/02/28 04:02:19;;;;;;;24.30;12.63;;;4.50;99.90;;;;;;5042444;28;20192;-59
2024/02/28 04:04:45;;;;;;;22.07;12.57;;;4.50;99.90;;;;;;5053586;28;20183;-59
2024/02/28 04:07:11;;;;;;;25.70;13.83;;;4.50;99.90;;;;;;5051636;28;20182;-60
2024/02/28 04:09:36;;;;;;;22.07;12.53;;;4.50;99.90;;;;;;5041502;28;20182;-59
2024/02/28 04:12:03;;;;;;;32.17;16.10;;;4.40;99.90;;;;;;5038394;28;20202;-59
2024/02/28 04:14:28;;;;;;;36.60;20.00;;;4.40;99.90;;;;;;5037560;28;20167;-58
2024/02/28 04:16:54;;;;;;;32.90;15.37;;;4.40;99.90;;;;;;5047134;28;20424;-58
2024/02/28 04:19:20;;;;;;;32.33;14.93;;;4.40;99.90;;;;;;5050353;28;20183;-58
2024/02/28 04:21:45;;;;;;;27.10;14.50;;;4.50;99.90;;;;;;5047148;28;20213;-60
2024/02/28 04:24:11;;;;;;;28.33;15.10;;;4.50;99.90;;;;;;5048396;28;20180;-57
2024/02/28 04:26:36;;;;;;;32.10;16.30;;;4.50;99.90;;;;;;5048244;28;20182;-59
2024/02/28 04:29:07;;;;;;;28.40;15.80;;;4.50;99.90;;;;;;5053740;28;20278;-59
2024/02/28 04:31:33;;;;;;;29.33;13.83;;;4.50;99.90;;;;;;5044435;28;20215;-59
2024/02/28 04:33:58;;;;;;;29.37;14.07;;;4.40;99.90;;;;;;5047670;28;20491;-59
2024/02/28 04:36:24;;;;;;;28.80;13.70;;;4.40;99.90;;;;;;5047718;28;20729;-59
2024/02/28 04:38:49;;;;;;;25.03;13.10;;;4.40;99.90;;;;;;5047871;28;20210;-60
2024/02/28 04:41:15;;;;;;;25.77;13.10;;;4.30;99.90;;;;;;5043515;28;20695;-59
2024/02/28 04:43:41;;;;;;;25.40;13.40;;;4.30;99.90;;;;;;5049780;28;20233;-59
2024/02/28 04:46:06;;;;;;;27.83;13.93;;;4.30;99.90;;;;;;5048927;28;20215;-57
2024/02/28 04:48:32;;;;;;;22.70;11.17;;;4.30;99.90;;;;;;5048182;28;20229;-59
2024/02/28 04:51:00;;;;;;;23.60;12.03;;;4.30;99.90;;;;;;5038775;28;20267;-58
2024/02/28 04:53:25;;;;;;;20.60;12.20;;;4.30;99.90;;;;;;5036468;28;20183;-58
2024/02/28 04:55:51;;;;;;;28.07;12.40;;;4.30;99.90;;;;;;5042064;28;20460;-59
2024/02/28 04:58:17;;;;;;;20.03;11.90;;;4.30;99.90;;;;;;5044227;28;20222;-60
2024/02/28 05:00:42;;;;;;;23.77;12.73;;;4.30;99.90;;;;;;5026918;28;20265;-61
2024/02/28 05:03:08;;;;;;;23.27;12.40;;;4.30;99.90;;;;;;5045720;28;20694;-59
2024/02/28 05:05:34;;;;;;;27.83;13.93;;;4.30;99.90;;;;;;5047471;28;20186;-60
2024/02/28 05:07:59;;;;;;;19.53;12.20;;;4.20;99.90;;;;;;5041111;28;20963;-61
2024/02/28 05:10:25;;;;;;;35.20;15.03;;;4.30;99.90;;;;;;5038938;28;20189;-60
2024/02/28 05:12:50;;;;;;;26.57;14.57;;;4.20;99.90;;;;;;5039841;28;20228;-62
2024/02/28 05:15:17;;;;;;;24.80;13.07;;;4.20;99.90;;;;;;5044105;28;20715;-60
2024/02/28 05:17:42;;;;;;;20.97;12.60;;;4.30;99.90;;;;;;5042486;28;20207;-61
2024/02/28 05:20:09;;;;;;;23.00;11.97;;;4.30;99.90;;;;;;5027631;28;20902;-60
2024/02/28 05:22:34;;;;;;;26.00;12.43;;;4.30;99.90;;;;;;5042565;28;20195;-60
2024/02/28 05:25:00;;;;;;;25.50;11.77;;;4.30;99.90;;;;;;5039902;28;20433;-61
2024/02/28 05:27:25;;;;;;;23.03;13.17;;;4.30;99.90;;;;;;5039981;28;20704;-60
2024/02/28 05:29:51;;;;;;;26.27;12.80;;;4.30;99.90;;;;;;5039738;28;20202;-57
2024/02/28 05:32:17;;;;;;;25.07;12.27;;;4.30;99.90;;;;;;5036088;28;20175;-56
2024/02/28 05:34:42;;;;;;;24.73;12.97;;;4.30;99.90;;;;;;5036779;28;20182;-57
2024/02/28 05:37:08;;;;;;;22.70;13.27;;;4.30;99.90;;;;;;5040302;28;20175;-58
2024/02/28 05:39:34;;;;;;;22.30;13.13;;;4.30;99.90;;;;;;5042267;28;20182;-56
2024/02/28 05:42:00;;;;;;;23.57;12.83;;;4.30;99.90;;;;;;5043293;28;20578;-57
2024/02/28 05:44:26;;;;;;;22.83;11.73;;;4.30;99.90;;;;;;5045086;28;20417;-56
2024/02/28 05:46:51;;;;;;;21.10;11.70;;;4.30;99.90;;;;;;5042677;28;20222;-61
2024/02/28 05:49:17;;;;;;;26.40;12.67;;;4.30;99.90;;;;;;5045495;28;20346;-60
2024/02/28 05:51:42;;;;;;;21.77;10.77;;;4.20;99.90;;;;;;5046164;28;20237;-61
2024/02/28 05:54:08;;;;;;;25.60;12.23;;;4.20;99.90;;;;;;5046352;28;20176;-60
2024/02/28 05:56:34;;;;;;;21.07;11.50;;;4.20;99.90;;;;;;5043059;28;20192;-61
2024/02/28 05:58:59;;;;;;;25.87;12.97;;;4.20;99.90;;;;;;5043342;28;20214;-60
2024/02/28 06:01:25;;;;;;;23.57;12.23;;;4.30;99.90;;;;;;5040184;28;20340;-60
2024/02/28 06:03:50;;;;;;;19.47;10.60;;;4.30;99.90;;;;;;5043552;28;20669;-60
2024/02/28 06:06:17;;;;;;;24.53;12.20;;;4.30;99.90;;;;;;5044629;28;20172;-60
2024/02/28 06:08:43;;;;;;;20.27;11.93;;;4.30;99.90;;;;;;5049283;28;20206;-60
2024/02/28 06:11:09;;;;;;;22.60;12.97;;;4.30;99.90;;;;;;5047109;28;20449;-60
2024/02/28 06:13:35;;;;;;;24.00;12.10;;;4.30;99.90;;;;;;5048218;28;20437;-60
2024/02/28 06:16:01;;;;;;;25.17;13.50;;;4.40;99.90;;;;;;5032711;28;20426;-60
2024/02/28 06:18:27;;;;;;;21.67;11.53;;;4.40;99.90;;;;;;5045670;28;21094;-59
2024/02/28 06:20:54;;;;;;;23.13;13.20;;;4.40;99.90;;;;;;5047198;28;20548;-60
2024/02/28 06:23:20;;;;;;;24.33;12.87;;;4.50;99.90;;;;;;5046101;28;20983;-60
2024/02/28 06:25:46;;;;;;;29.13;12.80;;;4.50;99.90;;;;;;5044361;28;20430;-61
2024/02/28 06:28:11;;;;;;;26.07;12.90;;;4.50;99.90;;;;;;5043980;28;20461;-60
2024/02/28 06:30:37;;;;;;;27.73;13.00;;;4.50;99.90;;;;;;5047810;28;20187;-60
2024/02/28 06:33:04;;;;;;;23.53;13.30;;;4.60;99.90;;;;;;5039737;28;20688;-61
2024/02/28 06:35:30;;;;;;;27.40;13.90;;;4.60;99.90;;;;;;5042026;28;20191;-60
2024/02/28 06:37:55;;;;;;;25.70;14.17;;;4.60;99.90;;;;;;5045007;28;20441;-60
2024/02/28 06:40:21;;;;;;;29.03;13.00;;;4.60;99.90;;;;;;5048450;28;20195;-61
2024/02/28 06:42:47;;;;;;;27.60;13.70;;;4.60;99.90;;;;;;5050659;28;20175;-60
2024/02/28 06:45:12;;;;;;;29.57;14.70;;;4.60;99.90;;;;;;5053014;28;20652;-60
2024/02/28 06:47:38;;;;;;;26.97;13.97;;;4.60;99.90;;;;;;5050198;28;20305;-60
2024/02/28 06:50:05;;;;;;;28.80;14.03;;;4.50;99.90;;;;;;5051230;28;20646;-60
2024/02/28 06:52:30;;;;;;;31.53;14.20;;;4.50;99.90;;;;;;5051575;28;20483;-60
2024/02/28 06:54:56;;;;;;;29.90;15.00;;;4.50;99.90;;;;;;5044408;28;20453;-60
2024/02/28 06:57:21;;;;;;;33.83;14.10;;;4.50;99.90;;;;;;5045702;28;20203;-61
2024/02/28 06:59:48;;;;;;;24.57;13.43;;;4.50;99.90;;;;;;5047014;28;20201;-60
2024/02/28 07:02:14;;;;;;;24.30;14.17;;;4.50;99.90;;;;;;5047535;28;20183;-61
2024/02/28 07:04:42;;;;;;;25.60;11.97;;;4.50;99.90;;;;;;5051038;28;20420;-60
2024/02/28 07:07:07;;;;;;;34.40;16.50;;;4.40;99.90;;;;;;5048804;28;20167;-60
2024/02/28 07:09:33;;;;;;;35.63;16.13;;;4.50;99.90;;;;;;5050018;28;20475;-59
2024/02/28 07:12:00;;;;;;;35.73;16.10;;;4.50;99.90;;;;;;5046971;28;20202;-60
2024/02/28 07:14:26;;;;;;;38.63;18.73;;;4.50;99.90;;;;;;5055676;28;20175;-62
2024/02/28 07:16:52;;;;;;;29.13;15.70;;;4.50;99.90;;;;;;5047029;28;20442;-60
2024/02/28 07:19:17;;;;;;;32.83;14.63;;;4.50;99.90;;;;;;5048889;28;20649;-60
2024/02/28 07:21:44;;;;;;;32.33;14.00;;;4.50;99.90;;;;;;5047752;28;20213;-60
2024/02/28 07:24:09;;;;;;;33.77;13.30;;;4.60;99.90;;;;;;5049481;28;20210;-60
2024/02/28 07:26:35;;;;;;;26.80;12.77;;;4.60;99.90;;;;;;5046437;28;20469;-60
2024/02/28 07:29:00;;;;;;;30.33;12.90;;;4.70;99.90;;;;;;5043290;28;20199;-60
2024/02/28 07:31:27;;;;;;;27.37;13.37;;;4.70;99.90;;;;;;5046402;28;20183;-60
2024/02/28 07:33:52;;;;;;;26.17;13.30;;;4.80;99.90;;;;;;5045546;28;20183;-60
2024/02/28 07:36:18;;;;;;;25.03;12.83;;;4.80;99.90;;;;;;5049384;28;20424;-60
2024/02/28 07:38:43;;;;;;;36.13;13.97;;;4.80;99.90;;;;;;5046513;28;20222;-60
2024/02/28 07:41:09;;;;;;;24.07;13.70;;;4.90;99.90;;;;;;5049241;28;20203;-60
2024/02/28 07:43:38;;;;;;;36.37;13.60;;;4.90;99.90;;;;;;5044841;28;20190;-60
2024/02/28 07:46:11;;;;;;;31.73;12.47;;;5.00;99.90;;;;;;5050236;28;20254;-60
2024/02/28 07:48:37;;;;;;;25.30;13.73;;;5.00;99.90;;;;;;5048030;28;20463;-60
2024/02/28 07:51:09;;;;;;;29.73;15.07;;;5.10;99.90;;;;;;5048904;28;20428;-60
2024/02/28 07:53:35;;;;;;;24.10;12.73;;;5.20;99.90;;;;;;5051900;28;20417;-60
2024/02/28 07:56:00;;;;;;;27.23;15.50;;;5.20;99.90;;;;;;5049738;28;20437;-61
2024/02/28 07:58:26;;;;;;;27.50;13.43;;;5.30;99.90;;;;;;5047633;28;20253;-60
2024/02/28 08:00:54;;;;;;;27.30;13.83;;;5.30;99.90;;;;;;5050727;28;20209;-60
2024/02/28 08:03:20;;;;;;;30.23;13.97;;;5.40;99.90;;;;;;5043931;28;20366;-61
2024/02/28 08:05:47;;;;;;;29.23;13.33;;;5.40;99.90;;;;;;5049180;28;20523;-60
2024/02/28 08:08:12;;;;;;;23.87;13.07;;;5.40;99.90;;;;;;5042745;28;21005;-59
2024/02/28 08:10:38;;;;;;;23.10;12.93;;;5.40;99.90;;;;;;5049662;28;20422;-60
2024/02/28 08:13:04;;;;;;;25.47;13.33;;;5.40;99.90;;;;;;5043827;28;20245;-60
2024/02/28 08:15:30;;;;;;;24.80;14.07;;;5.40;99.90;;;;;;5045442;28;20737;-60
2024/02/28 08:17:56;;;;;;;29.07;15.40;;;5.40;99.90;;;;;;5044067;28;20796;-60
2024/02/28 08:20:22;;;;;;;29.53;14.30;;;5.50;99.90;;;;;;5048251;28;20994;-61
2024/02/28 08:22:47;;;;;;;33.10;15.50;;;5.60;99.90;;;;;;5046247;28;20179;-59
2024/02/28 08:25:14;;;;;;;29.63;15.20;;;5.60;99.90;;;;;;5042127;28;20187;-59
2024/02/28 08:27:39;;;;;;;33.33;16.57;;;5.70;99.90;;;;;;5044144;28;20217;-60
2024/02/28 08:30:06;;;;;;;36.23;15.80;;;5.80;99.90;;;;;;5046001;28;20425;-60
2024/02/28 08:32:32;;;;;;;36.10;18.50;;;5.80;99.90;;;;;;5046598;28;20187;-57
2024/02/28 08:34:58;;;;;;;30.77;15.67;;;5.90;99.90;;;;;;5044848;28;21013;-59
2024/02/28 08:37:24;;;;;;;28.07;14.00;;;5.90;99.90;;;;;;5046022;28;20477;-60
2024/02/28 08:39:50;;;;;;;31.47;15.80;;;6.00;99.90;;;;;;5041753;28;20809;-59
2024/02/28 08:42:16;;;;;;;28.93;15.50;;;6.00;98.50;;;;;;5046660;28;20437;-59
2024/02/28 08:44:41;;;;;;;28.73;15.50;;;6.10;97.00;;;;;;5049348;28;20195;-58
2024/02/28 08:47:11;;;;;;;28.80;15.00;;;6.10;96.40;;;;;;5040179;28;20848;-59
2024/02/28 08:49:39;;;;;;;29.80;14.53;;;6.10;96.00;;;;;;5043847;28;20179;-60
2024/02/28 08:52:04;;;;;;;27.17;14.67;;;6.10;95.90;;;;;;5044307;28;20838;-60
2024/02/28 08:54:30;;;;;;;28.57;14.37;;;6.20;95.30;;;;;;5040079;28;20442;-60
2024/02/28 08:56:56;;;;;;;26.57;14.00;;;6.20;95.60;;;;;;5045379;28;20186;-59
2024/02/28 08:59:21;;;;;;;27.07;13.30;;;6.30;95.90;;;;;;5047651;28;20775;-60
2024/02/28 09:01:48;;;;;;;28.50;15.10;;;6.30;96.10;;;;;;5047720;28;20269;-60
2024/02/28 09:04:14;;;;;;;29.33;15.07;;;6.40;95.10;;;;;;5045374;28;20565;-60
2024/02/28 09:06:40;;;;;;;29.90;14.37;;;6.50;94.10;;;;;;5045745;28;20432;-61
2024/02/28 09:09:05;;;;;;;27.07;13.37;;;6.60;93.20;;;;;;5044445;28;20471;-60
2024/02/28 09:11:31;;;;;;;27.37;14.67;;;6.60;92.30;;;;;;5047947;28;20202;-60
2024/02/28 09:13:56;;;;;;;28.73;14.17;;;6.70;91.90;;;;;;5050962;28;20266;-60
2024/02/28 09:16:22;;;;;;;30.50;14.57;;;6.80;91.00;;;;;;5047014;28;20205;-59
2024/02/28 09:18:48;;;;;;;28.10;13.47;;;6.80;90.10;;;;;;5048328;28;20286;-60
2024/02/28 09:21:15;;;;;;;29.47;15.87;;;6.90;89.80;;;;;;5045217;28;20207;-59
2024/02/28 09:23:40;;;;;;;29.77;15.10;;;7.00;88.30;;;;;;5028707;28;20262;-60
2024/02/28 09:26:06;;;;;;;28.07;14.40;;;7.10;86.50;;;;;;5030122;28;20989;-60
2024/02/28 09:28:33;;;;;;;27.77;15.37;;;7.20;83.80;;;;;;5045613;28;20665;-60
2024/02/28 09:30:58;;;;;;;30.23;14.60;;;7.20;82.70;;;;;;5044514;28;20191;-61
2024/02/28 09:33:24;;;;;;;26.60;14.50;;;7.30;80.60;;;;;;5027693;28;20424;-60
2024/02/28 09:35:49;;;;;;;26.13;14.93;;;7.30;77.90;;;;;;5041378;28;20191;-60
2024/02/28 09:38:15;;;;;;;28.33;15.10;;;7.40;78.30;;;;;;5044898;28;20230;-61
2024/02/28 09:40:42;;;;;;;26.40;15.50;;;7.50;79.00;;;;;;5047405;28;20199;-60
2024/02/28 09:43:13;;;;;;;24.57;13.83;;;7.60;79.00;;;;;;5042543;28;20179;-60
2024/02/28 09:45:40;;;;;;;27.60;14.17;;;7.80;78.50;;;;;;5046981;28;20413;-61
2024/02/28 09:48:06;;;;;;;26.70;13.73;;;8.00;77.60;;;;;;5043378;28;20449;-60
2024/02/28 09:50:32;;;;;;;26.93;14.97;;;8.10;76.10;;;;;;5044495;28;20610;-61
2024/02/28 09:52:58;;;;;;;25.43;14.03;;;8.30;73.10;;;;;;5041205;28;21173;-59
2024/02/28 09:55:23;;;;;;;25.70;14.07;;;8.40;73.10;;;;;;5044226;28;20190;-61
2024/02/28 09:57:51;;;;;;;25.30;14.73;;;8.50;72.50;;;;;;5041691;28;20674;-60
2024/02/28 10:00:20;;;;;;;31.37;14.20;;;8.60;69.90;;;;;;5050294;28;20278;-62
2024/02/28 10:02:48;;;;;;;29.40;14.63;;;8.50;69.50;;;;;;5045504;28;20533;-60
2024/02/28 10:05:14;;;;;;;23.87;13.43;;;8.60;70.30;;;;;;5046464;28;20433;-60
2024/02/28 10:07:40;;;;;;;25.90;14.17;;;8.70;70.20;;;;;;5043447;28;20440;-59
2024/02/28 10:10:08;;;;;;;25.50;14.27;;;8.70;69.40;;;;;;5046734;28;20426;-60
2024/02/28 10:12:34;;;;;;;28.80;13.70;;;8.80;69.40;;;;;;5047291;28;20532;-61
2024/02/28 10:15:00;;;;;;;26.77;13.87;;;9.00;69.30;;;;;;5028083;28;20532;-61
2024/02/28 10:17:26;;;;;;;22.57;13.27;;;9.20;68.80;;;;;;5046845;28;20269;-60
2024/02/28 10:19:52;;;;;;;24.33;13.10;;;9.40;67.70;;;;;;5041673;28;20966;-60
2024/02/28 10:22:18;;;;;;;30.63;14.20;;;9.60;66.50;;;;;;5047529;28;20167;-60
2024/02/28 10:24:44;;;;;;;25.90;14.57;;;9.80;66.30;;;;;;5045684;28;20463;-60
2024/02/28 10:27:09;;;;;;;22.70;13.37;;;10.00;64.80;;;;;;5043188;28;20183;-61
2024/02/28 10:29:35;;;;;;;23.90;13.30;;;10.10;63.60;;;;;;5042917;28;20554;-60
2024/02/28 10:32:02;;;;;;;19.50;12.33;;;10.20;62.40;;;;;;5036772;28;20269;-61
2024/02/28 10:34:29;;;;;;;17.73;12.13;;;10.20;62.20;;;;;;5040775;28;20201;-60
2024/02/28 10:36:57;;;;;;;23.90;13.20;;;10.20;60.30;;;;;;5046481;28;20474;-60
2024/02/28 10:39:24;;;;;;;22.80;13.50;;;10.10;60.60;;;;;;5044796;28;20426;-60
2024/02/28 10:41:52;;;;;;;23.47;13.90;;;10.10;61.50;;;;;;5041913;28;20457;-62
2024/02/28 10:44:20;;;;;;;26.73;14.40;;;10.10;61.70;;;;;;5045411;28;20418;-61
2024/02/28 10:46:49;;;;;;;25.40;14.67;;;10.10;62.10;;;;;;5044942;28;20506;-60
2024/02/28 10:49:14;;;;;;;26.23;14.50;;;10.10;63.70;;;;;;5041254;28;20920;-60
2024/02/28 10:51:45;;;;;;;26.20;14.13;;;10.20;62.90;;;;;;5047139;28;20422;-60
2024/02/28 10:54:12;;;;;;;25.77;13.90;;;10.20;61.90;;;;;;5045535;28;20175;-60
2024/02/28 10:56:42;;;;;;;26.40;14.70;;;9.90;62.20;;;;;;5040820;28;20465;-61
2024/02/28 10:59:10;;;;;;;30.73;15.17;;;9.50;62.60;;;;;;5043002;28;20461;-60
2024/02/28 11:01:42;;;;;;;26.13;14.13;;;9.30;63.40;;;;;;5028427;28;20483;-59
2024/02/28 11:04:08;;;;;;;29.73;15.33;;;9.10;64.60;;;;;;5042996;28;20504;-60
2024/02/28 11:06:34;;;;;;;26.50;14.10;;;9.00;65.10;;;;;;5039860;28;22261;-58
2024/02/28 11:09:02;;;;;;;27.33;14.83;;;8.90;65.60;;;;;;5018274;28;20575;-58
2024/02/28 11:11:32;;;;;;;28.53;14.20;;;8.80;66.20;;;;;;5045505;28;20289;-59
2024/02/28 11:14:00;;;;;;;31.23;16.10;;;8.80;66.40;;;;;;5040174;28;20429;-59
2024/02/28 11:16:33;;;;;;;30.07;14.90;;;8.70;66.70;;;;;;5044027;28;20449;-59
2024/02/28 11:19:01;;;;;;;27.53;15.80;;;8.70;67.30;;;;;;5038605;28;20564;-60
2024/02/28 11:21:27;;;;;;;37.43;17.10;;;8.70;67.60;;;;;;5045514;28;20441;-61
2024/02/28 11:23:58;;;;;;;28.27;15.57;;;8.70;68.10;;;;;;5043303;28;20777;-60
2024/02/28 11:26:24;;;;;;;29.53;15.80;;;8.70;68.10;;;;;;5045291;28;20430;-60
2024/02/28 11:28:50;;;;;;;27.93;16.07;;;8.70;68.20;;;;;;5046419;28;20486;-59
2024/02/28 11:31:16;;;;;;;29.13;15.50;;;8.60;68.30;;;;;;5044889;28;22186;-59
2024/02/28 11:33:42;;;;;;;32.07;16.50;;;8.60;68.90;;;;;;5024932;28;20194;-59
2024/02/28 11:36:07;;;;;;;34.03;16.23;;;8.60;69.00;;;;;;5042539;28;20437;-59
2024/02/28 11:38:37;;;;;;;33.10;16.87;;;8.60;69.20;;;;;;5044299;28;20215;-61
2024/02/28 11:41:03;;;;;;;30.30;15.20;;;8.50;68.60;;;;;;5034740;28;20207;-60
2024/02/28 11:43:32;;;;;;;30.10;17.13;;;8.40;68.80;;;;;;5047528;28;20965;-59
2024/02/28 11:45:58;;;;;;;30.00;17.20;;;8.40;69.50;;;;;;5046162;28;21167;-61
2024/02/28 11:48:26;;;;;;;31.50;16.50;;;8.40;70.20;;;;;;5045317;28;20465;-60
2024/02/28 11:50:52;;;;;;;31.67;16.83;;;8.40;70.70;;;;;;5046209;28;20444;-61
2024/02/28 11:53:18;;;;;;;28.27;16.10;;;8.50;70.80;;;;;;5043531;28;20492;-60
2024/02/28 11:55:47;;;;;;;26.70;15.40;;;8.50;71.10;;;;;;5044353;28;20418;-60
2024/02/28 11:58:13;;;;;;;30.40;15.60;;;8.60;71.60;;;;;;5045879;28;20207;-60
2024/02/28 12:00:49;;;;;;;30.00;16.00;;;8.80;71.70;;;;;;5042999;28;20485;-61
2024/02/28 12:03:15;;;;;;;33.37;14.67;;;9.00;71.10;;;;;;5041671;28;20183;-61
2024/02/28 12:05:44;;;;;;;28.10;14.70;;;9.20;70.60;;;;;;5037334;28;20425;-61
2024/02/28 12:08:11;;;;;;;26.37;14.67;;;9.40;69.70;;;;;;5041866;28;20218;-60
2024/02/28 12:10:36;;;;;;;31.30;15.87;;;9.50;68.60;;;;;;5042480;28;20827;-61
2024/02/28 12:13:02;;;;;;;27.77;14.07;;;9.60;67.60;;;;;;5046154;28;20445;-60
2024/02/28 12:15:32;;;;;;;24.93;15.43;;;9.60;67.10;;;;;;5047782;28;20175;-60
2024/02/28 12:18:00;;;;;;;29.27;16.40;;;9.70;67.00;;;;;;5044187;28;20199;-61
2024/02/28 12:20:26;;;;;;;33.40;16.93;;;9.70;66.20;;;;;;5053088;28;20479;-61
2024/02/28 12:22:51;;;;;;;21.77;14.13;;;9.60;65.80;;;;;;5044286;28;21204;-62
2024/02/28 12:25:17;;;;;;;25.00;14.47;;;9.50;65.70;;;;;;5025028;28;20179;-62
2024/02/28 12:27:43;;;;;;;24.37;13.87;;;9.50;66.20;;;;;;5043300;28;22969;-60
2024/02/28 12:30:09;;;;;;;28.63;15.33;;;9.40;65.90;;;;;;5045554;28;20432;-61